createdAt,value
2023-01-20T00:00:15.686Z,91.62
2023-01-20T00:03:18.415Z,91.34
2023-01-20T00:06:28.731Z,91.62
2023-01-20T00:09:32.162Z,91.53
2023-01-20T00:12:34.819Z,91.69
2023-01-20T00:15:37.533Z,91.57
2023-01-20T00:18:41.335Z,91.35
2023-01-20T00:21:45.562Z,91.29
2023-01-20T00:24:48.198Z,91.67
2023-01-20T00:27:54.344Z,91.58
2023-01-20T00:30:59.232Z,91.71
2023-01-20T00:34:02.780Z,91.49
2023-01-20T00:37:09.814Z,91.72
2023-01-20T00:40:13.675Z,91.60
2023-01-20T00:43:16.432Z,91.46
2023-01-20T00:46:26.663Z,91.77
2023-01-20T00:49:32.346Z,91.58
2023-01-20T00:52:38.110Z,91.62
2023-01-20T00:55:40.791Z,91.60
2023-01-20T00:58:45.539Z,91.79
2023-01-20T01:02:03.874Z,91.73
2023-01-20T01:05:12.721Z,91.53
2023-01-20T01:08:19.819Z,91.73
2023-01-20T01:11:24.790Z,91.72
2023-01-20T01:14:31.956Z,91.64
2023-01-20T01:17:39.284Z,91.59
2023-01-20T01:20:46.946Z,91.76
2023-01-20T01:23:51.849Z,91.76
2023-01-20T01:26:54.864Z,91.88
2023-01-20T01:29:57.480Z,91.63
2023-01-20T01:33:00.498Z,92.10
2023-01-20T01:36:04.794Z,91.73
2023-01-20T01:39:08.899Z,91.94
2023-01-20T01:42:16.214Z,91.91
2023-01-20T01:45:27.945Z,91.93
2023-01-20T01:48:34.728Z,91.89
2023-01-20T01:51:42.332Z,91.73
2023-01-20T01:54:46.499Z,91.90
2023-01-20T01:57:50.264Z,91.70
2023-01-20T02:00:57.847Z,91.83
2023-01-20T02:04:06.590Z,91.88
2023-01-20T02:07:12.778Z,91.49
2023-01-20T02:10:19.471Z,91.75
2023-01-20T02:13:22.287Z,91.38
2023-01-20T02:16:43.951Z,91.74
2023-01-20T02:20:26.659Z,91.86
2023-01-20T02:23:55.804Z,91.78
2023-01-20T02:27:09.414Z,91.66
2023-01-20T02:30:32.921Z,91.61
2023-01-20T02:33:42.107Z,91.70
2023-01-20T02:36:48.956Z,91.84
2023-01-20T02:39:59.841Z,91.56
2023-01-20T02:46:34.842Z,91.47
2023-01-20T02:49:42.151Z,91.83
2023-01-20T02:52:55.699Z,91.67
2023-01-20T02:55:58.555Z,91.70
2023-01-20T02:59:05.361Z,91.73
2023-01-20T03:02:11.935Z,91.88
2023-01-20T03:05:22.567Z,91.77
2023-01-20T03:08:27.991Z,92.08
2023-01-20T03:11:33.067Z,91.87
2023-01-20T03:14:37.013Z,91.89
2023-01-20T03:17:40.344Z,92.32
2023-01-20T03:20:44.469Z,92.40
2023-01-20T03:23:49.716Z,92.52
2023-01-20T03:26:53.270Z,92.32
2023-01-20T03:29:55.965Z,92.11
2023-01-20T03:32:58.826Z,92.15
2023-01-20T03:36:03.323Z,92.53
2023-01-20T03:39:06.732Z,92.21
2023-01-20T03:42:13.943Z,92.45
2023-01-20T03:45:25.469Z,92.30
2023-01-20T03:48:42.123Z,92.52
2023-01-20T03:51:58.048Z,92.35
2023-01-20T03:55:05.917Z,92.40
2023-01-20T03:58:12.767Z,92.13
2023-01-20T04:01:22.077Z,92.05
2023-01-20T04:04:29.903Z,92.22
2023-01-20T04:07:34.247Z,92.18
2023-01-20T04:10:41.954Z,92.14
2023-01-20T04:13:44.698Z,92.34
2023-01-20T04:16:53.261Z,92.18
2023-01-20T04:20:07.303Z,92.39
2023-01-20T04:23:18.696Z,92.20
2023-01-20T04:26:21.363Z,92.23
2023-01-20T04:29:24.061Z,92.10
2023-01-20T04:32:26.846Z,92.39
2023-01-20T04:35:31.660Z,92.03
2023-01-20T04:38:35.650Z,92.30
2023-01-20T04:41:38.471Z,92.17
2023-01-20T04:44:41.195Z,91.97
2023-01-20T04:47:44.155Z,92.18
2023-01-20T04:50:46.878Z,92.18
2023-01-20T04:53:57.846Z,92.79
2023-01-20T04:57:00.499Z,92.96
2023-01-20T05:00:06.533Z,92.81
2023-01-20T05:03:09.261Z,92.80
2023-01-20T05:06:12.668Z,92.57
2023-01-20T05:09:17.487Z,92.75
2023-01-20T05:12:22.537Z,92.58
2023-01-20T05:15:25.173Z,92.66
2023-01-20T05:18:27.823Z,92.73
2023-01-20T05:21:30.527Z,92.48
2023-01-20T05:24:34.601Z,92.46
2023-01-20T05:27:37.764Z,92.41
2023-01-20T05:30:43.012Z,92.66
2023-01-20T05:33:45.823Z,92.93
2023-01-20T05:36:52.340Z,93.33
2023-01-20T05:39:56.421Z,93.59
2023-01-20T05:43:00.182Z,93.46
2023-01-20T05:46:07.459Z,93.63
2023-01-20T05:49:11.473Z,93.75
2023-01-20T05:52:14.160Z,93.93
2023-01-20T05:55:18.238Z,93.49
2023-01-20T05:58:23.874Z,93.90
2023-01-20T06:01:26.953Z,93.92
2023-01-20T06:04:29.753Z,93.69
2023-01-20T06:07:34.545Z,93.99
2023-01-20T06:10:38.590Z,93.70
2023-01-20T06:13:43.576Z,93.79
2023-01-20T06:16:46.243Z,93.73
2023-01-20T06:20:14.198Z,93.82
2023-01-20T06:23:17.552Z,93.79
2023-01-20T06:26:21.618Z,93.41
2023-01-20T06:29:24.321Z,93.31
2023-01-20T06:32:27.449Z,93.16
2023-01-20T06:35:30.120Z,93.21
2023-01-20T06:38:35.064Z,93.01
2023-01-20T06:41:39.053Z,93.04
2023-01-20T06:44:41.729Z,92.97
2023-01-20T06:47:44.399Z,92.78
2023-01-20T06:50:47.028Z,93.05
2023-01-20T06:53:49.745Z,93.12
2023-01-20T06:56:53.786Z,93.27
2023-01-20T06:59:58.915Z,93.06
2023-01-20T07:03:02.071Z,92.51
2023-01-20T07:06:08.548Z,92.64
2023-01-20T07:09:13.679Z,92.67
2023-01-20T07:12:17.849Z,92.83
2023-01-20T07:15:20.620Z,92.61
2023-01-20T07:18:29.561Z,92.46
2023-01-20T07:21:32.459Z,92.28
2023-01-20T07:24:40.361Z,92.17
2023-01-20T07:27:44.376Z,92.04
2023-01-20T07:30:53.438Z,92.13
2023-01-20T07:33:56.825Z,92.21
2023-01-20T07:37:01.906Z,92.19
2023-01-20T07:40:07.387Z,91.70
2023-01-20T07:43:11.468Z,92.08
2023-01-20T07:46:14.877Z,92.00
2023-01-20T07:49:17.892Z,91.65
2023-01-20T07:52:20.872Z,91.64
2023-01-20T07:55:25.185Z,91.39
2023-01-20T07:58:29.985Z,91.48
2023-01-20T08:01:33.913Z,91.41
2023-01-20T08:04:40.717Z,91.36
2023-01-20T08:07:43.500Z,91.25
2023-01-20T08:10:49.024Z,91.36
2023-01-20T08:13:53.940Z,91.26
2023-01-20T08:16:56.644Z,91.41
2023-01-20T08:19:59.328Z,91.40
2023-01-20T08:23:02.007Z,91.22
2023-01-20T08:26:07.070Z,91.53
2023-01-20T08:29:11.295Z,90.66
2023-01-20T08:32:14.043Z,89.24
2023-01-20T08:35:19.579Z,90.01
2023-01-20T08:38:22.226Z,89.72
2023-01-20T08:41:27.684Z,89.69
2023-01-20T08:44:34.807Z,89.55
2023-01-20T08:47:39.846Z,89.67
2023-01-20T08:50:42.498Z,89.81
2023-01-20T08:53:45.719Z,89.68
2023-01-20T08:56:51.187Z,89.70
2023-01-20T08:59:55.821Z,89.89
2023-01-20T09:02:58.485Z,89.23
2023-01-20T09:06:03.357Z,89.14
2023-01-20T09:09:06.041Z,89.18
2023-01-20T09:12:09.190Z,89.08
2023-01-20T09:15:14.128Z,88.75
2023-01-20T09:18:17.497Z,88.21
2023-01-20T09:21:20.331Z,87.59
2023-01-20T09:24:23.352Z,87.25
2023-01-20T09:27:26.900Z,86.61
2023-01-20T09:30:31.164Z,86.15
2023-01-20T09:33:36.106Z,85.85
2023-01-20T09:36:46.802Z,85.67
2023-01-20T09:40:07.579Z,86.22
2023-01-20T09:43:42.814Z,86.61
2023-01-20T09:47:18.179Z,86.19
2023-01-20T09:50:50.284Z,86.22
2023-01-20T09:54:04.057Z,85.67
2023-01-20T09:57:09.136Z,84.77
2023-01-20T10:00:18.658Z,84.09
2023-01-20T10:03:36.903Z,83.99
2023-01-20T10:06:44.298Z,84.30
2023-01-20T10:10:04.531Z,83.94
2023-01-20T10:13:14.275Z,83.71
2023-01-20T10:16:28.373Z,83.94
2023-01-20T10:19:38.661Z,83.84
2023-01-20T10:22:49.967Z,83.82
2023-01-20T10:26:02.059Z,83.72
2023-01-20T10:29:12.803Z,83.49
2023-01-20T10:32:32.319Z,82.88
2023-01-20T10:35:40.119Z,83.14
2023-01-20T10:38:52.588Z,83.17
2023-01-20T10:42:03.350Z,82.88
2023-01-20T10:45:19.278Z,83.19
2023-01-20T10:48:38.231Z,82.41
2023-01-20T10:51:54.551Z,81.78
2023-01-20T10:55:06.155Z,81.62
2023-01-20T10:58:18.248Z,81.52
2023-01-20T11:01:22.172Z,82.26
2023-01-20T11:04:24.887Z,82.47
2023-01-20T11:07:30.149Z,81.14
2023-01-20T11:10:34.180Z,81.41
2023-01-20T11:13:36.855Z,82.32
2023-01-20T11:16:41.052Z,82.45
2023-01-20T11:19:53.086Z,82.99
2023-01-20T11:23:06.564Z,83.41
2023-01-20T11:26:25.595Z,83.47
2023-01-20T11:29:31.693Z,82.93
2023-01-20T11:32:36.687Z,83.58
2023-01-20T11:35:39.349Z,83.62
2023-01-20T11:38:49.163Z,84.03
2023-01-20T11:42:12.004Z,83.94
2023-01-20T11:45:27.495Z,83.51
2023-01-20T11:48:30.131Z,83.29
2023-01-20T11:51:32.728Z,83.48
2023-01-20T11:54:37.378Z,83.74
2023-01-20T11:57:44.667Z,83.66
2023-01-20T12:00:52.240Z,83.14
2023-01-20T12:04:35.032Z,83.53
2023-01-20T12:07:44.969Z,83.23
2023-01-20T12:10:50.714Z,82.30
2023-01-20T12:14:23.115Z,81.72
2023-01-20T12:17:58.591Z,81.45
2023-01-20T12:21:07.966Z,81.52
2023-01-20T12:24:19.566Z,80.88
2023-01-20T12:27:29.193Z,80.96
2023-01-20T12:30:56.902Z,80.62
2023-01-20T12:34:15.919Z,80.89
2023-01-20T12:37:32.560Z,79.39
2023-01-20T12:40:43.064Z,79.72
2023-01-20T12:43:59.777Z,79.81
2023-01-20T12:47:19.140Z,80.04
2023-01-20T12:50:35.576Z,78.38
2023-01-20T12:54:06.512Z,77.37
2023-01-20T12:57:22.199Z,78.09
2023-01-20T13:00:54.426Z,77.86
2023-01-20T13:04:24.593Z,78.49
2023-01-20T13:07:51.778Z,79.25
2023-01-20T13:11:08.668Z,79.85
2023-01-20T13:14:18.684Z,80.39
2023-01-20T13:17:29.076Z,81.01
2023-01-20T13:20:32.154Z,81.21
2023-01-20T13:23:37.780Z,81.02
2023-01-20T13:26:40.774Z,80.20
2023-01-20T13:29:57.490Z,80.09
2023-01-20T13:33:08.768Z,79.48
2023-01-20T13:36:18.160Z,78.63
2023-01-20T13:39:41.929Z,76.21
2023-01-20T13:42:50.539Z,77.75
2023-01-20T13:46:34.106Z,76.77
2023-01-20T13:49:50.630Z,77.03
2023-01-20T13:53:05.942Z,76.98
2023-01-20T13:56:25.538Z,77.21
2023-01-20T13:59:28.204Z,76.96
2023-01-20T14:02:37.385Z,76.82
2023-01-20T14:05:44.036Z,76.95
2023-01-20T14:08:51.656Z,76.41
2023-01-20T14:11:56.192Z,76.20
2023-01-20T14:14:59.712Z,75.19
2023-01-20T14:18:03.069Z,75.41
2023-01-20T14:21:19.970Z,75.45
2023-01-20T14:24:30.021Z,75.95
2023-01-20T14:27:35.613Z,76.09
2023-01-20T14:30:38.466Z,76.63
2023-01-20T14:33:49.270Z,76.54
2023-01-20T14:37:00.852Z,77.03
2023-01-20T14:40:20.538Z,77.13
2023-01-20T14:43:23.417Z,77.43
2023-01-20T14:46:30.026Z,77.46
2023-01-20T14:49:44.720Z,77.21
2023-01-20T14:52:49.014Z,77.11
2023-01-20T14:56:07.572Z,76.62
2023-01-20T14:59:19.877Z,76.33
2023-01-20T15:02:30.195Z,76.34
2023-01-20T15:05:34.683Z,76.59
2023-01-20T15:09:04.356Z,76.74
2023-01-20T15:12:35.507Z,77.12
2023-01-20T15:15:38.313Z,77.24
2023-01-20T15:18:41.521Z,77.60
2023-01-20T15:21:46.725Z,77.69
2023-01-20T15:24:51.955Z,78.04
2023-01-20T15:27:55.781Z,78.31
2023-01-20T15:31:00.231Z,78.59
2023-01-20T15:34:03.191Z,78.50
2023-01-20T15:37:12.545Z,78.75
2023-01-20T15:40:26.812Z,79.27
2023-01-20T15:43:29.612Z,79.63
2023-01-20T15:46:32.800Z,80.18
2023-01-20T15:49:35.731Z,80.50
2023-01-20T15:52:38.395Z,80.89
2023-01-20T15:55:47.226Z,80.99
2023-01-20T15:58:53.097Z,81.42
2023-01-20T16:01:55.816Z,81.14
2023-01-20T16:05:02.356Z,81.62
2023-01-20T16:08:13.206Z,81.82
2023-01-20T16:11:18.876Z,82.28
2023-01-20T16:14:21.734Z,82.91
2023-01-20T16:17:26.195Z,83.45
2023-01-20T16:20:30.904Z,83.35
2023-01-20T16:23:33.545Z,83.75
2023-01-20T16:26:37.556Z,83.68
2023-01-20T16:29:41.731Z,83.47
2023-01-20T16:32:46.210Z,83.57
2023-01-20T16:35:56.664Z,83.06
2023-01-20T16:38:59.500Z,83.17
2023-01-20T16:42:11.003Z,83.23
2023-01-20T16:45:24.367Z,82.86
2023-01-20T16:48:27.107Z,83.31
2023-01-20T16:51:31.357Z,83.36
2023-01-20T16:54:36.316Z,83.07
2023-01-20T16:57:44.491Z,83.03
2023-01-20T17:00:59.805Z,83.11
2023-01-20T17:04:07.771Z,82.79
2023-01-20T17:07:14.494Z,83.02
2023-01-20T17:10:19.165Z,83.24
2023-01-20T17:13:23.725Z,83.41
2023-01-20T17:16:31.812Z,83.42
2023-01-20T17:19:35.373Z,83.69
2023-01-20T17:22:39.840Z,83.18
2023-01-20T17:25:51.586Z,82.84
2023-01-20T17:29:02.470Z,83.38
2023-01-20T17:32:05.940Z,83.67
2023-01-20T17:35:08.995Z,83.91
2023-01-20T17:38:11.845Z,84.13
2023-01-20T17:41:15.421Z,84.49
2023-01-20T17:44:25.404Z,84.07
2023-01-20T17:47:29.977Z,84.26
2023-01-20T17:50:38.898Z,84.28
2023-01-20T17:53:44.709Z,85.03
2023-01-20T17:56:47.992Z,85.84
2023-01-20T17:59:52.252Z,86.72
2023-01-20T18:02:56.859Z,87.38
2023-01-20T18:06:03.426Z,87.79
2023-01-20T18:09:08.171Z,88.69
2023-01-20T18:12:10.933Z,89.05
2023-01-20T18:15:15.098Z,89.18
2023-01-20T18:18:17.953Z,90.19
2023-01-20T18:21:22.268Z,90.60
2023-01-20T18:24:24.937Z,90.45
2023-01-20T18:27:27.626Z,90.45
2023-01-20T18:30:32.033Z,89.84
2023-01-20T18:33:38.267Z,88.86
2023-01-20T18:36:44.987Z,88.13
2023-01-20T18:39:48.883Z,87.22
2023-01-20T18:42:51.692Z,87.69
2023-01-20T18:45:56.038Z,88.06
2023-01-20T18:48:58.795Z,88.91
2023-01-20T18:52:01.544Z,89.19
2023-01-20T18:55:04.510Z,89.03
2023-01-20T18:58:08.639Z,88.60
2023-01-20T19:01:18.486Z,88.24
2023-01-20T19:04:24.271Z,88.40
2023-01-20T19:07:27.142Z,88.44
2023-01-20T19:10:29.804Z,89.02
2023-01-20T19:13:33.327Z,89.32
2023-01-20T19:16:39.317Z,90.08
2023-01-20T19:19:49.545Z,90.18
2023-01-20T19:22:52.230Z,90.22
2023-01-20T19:26:03.429Z,89.83
2023-01-20T19:29:10.393Z,89.59
2023-01-20T19:32:15.352Z,88.97
2023-01-20T19:35:18.023Z,89.26
2023-01-20T19:38:20.684Z,89.74
2023-01-20T19:41:27.700Z,89.38
2023-01-20T19:44:30.533Z,89.44
2023-01-20T19:47:35.384Z,89.95
2023-01-20T19:50:38.470Z,90.20
2023-01-20T19:53:41.888Z,90.68
2023-01-20T19:56:44.674Z,90.54
2023-01-20T19:59:50.740Z,90.73
2023-01-20T20:02:55.305Z,90.44
2023-01-20T20:05:58.280Z,89.10
2023-01-20T20:09:03.269Z,89.22
2023-01-20T20:12:07.726Z,89.21
2023-01-20T20:15:11.069Z,89.79
2023-01-20T20:18:15.516Z,89.64
2023-01-20T20:21:18.315Z,90.25
2023-01-20T20:24:29.322Z,90.23
2023-01-20T20:27:31.941Z,91.27
2023-01-20T20:30:34.567Z,90.53
2023-01-20T20:33:38.807Z,90.71
2023-01-20T20:36:41.541Z,91.55
2023-01-20T20:39:44.357Z,91.47
2023-01-20T20:42:48.595Z,90.72
2023-01-20T20:45:51.456Z,91.39
2023-01-20T20:48:56.680Z,91.92
2023-01-20T20:51:59.331Z,90.83
2023-01-20T20:55:01.996Z,90.92
2023-01-20T20:58:04.918Z,90.88
2023-01-20T21:01:11.704Z,91.36
2023-01-20T21:04:15.677Z,91.71
2023-01-20T21:07:23.379Z,91.50
2023-01-20T21:10:26.066Z,91.49
2023-01-20T21:13:29.304Z,91.44
2023-01-20T21:16:31.977Z,91.78
2023-01-20T21:19:36.130Z,91.98
2023-01-20T21:22:39.197Z,91.61
2023-01-20T21:25:41.856Z,91.11
2023-01-20T21:28:44.901Z,91.61
2023-01-20T21:31:48.535Z,92.06
2023-01-20T21:34:55.306Z,92.19
2023-01-20T21:37:57.968Z,91.51
2023-01-20T21:41:08.273Z,91.63
2023-01-20T21:44:33.728Z,91.43
2023-01-20T21:47:36.431Z,91.63
2023-01-20T21:50:57.928Z,91.28
2023-01-20T21:54:00.531Z,91.71
2023-01-20T21:57:04.691Z,91.46
2023-01-20T22:00:10.554Z,90.33
2023-01-20T22:03:16.310Z,90.97
2023-01-20T22:06:20.283Z,90.72
2023-01-20T22:09:22.928Z,90.81
2023-01-20T22:12:25.832Z,90.78
2023-01-20T22:15:29.762Z,90.67
2023-01-20T22:18:32.740Z,91.29
2023-01-20T22:21:36.746Z,91.24
2023-01-20T22:24:39.449Z,90.97
2023-01-20T22:27:45.127Z,91.00
2023-01-20T22:30:47.920Z,90.58
2023-01-20T22:33:58.533Z,90.49
2023-01-20T22:37:02.596Z,90.64
2023-01-20T22:40:06.256Z,90.41
2023-01-20T22:43:08.920Z,90.61
2023-01-20T22:46:13.577Z,90.98
2023-01-20T22:49:16.267Z,90.81
2023-01-20T22:52:20.309Z,90.79
2023-01-20T22:55:25.374Z,90.79
2023-01-20T22:58:28.061Z,90.42
2023-01-20T23:01:32.764Z,89.87
2023-01-20T23:04:38.441Z,90.35
2023-01-20T23:07:44.714Z,89.52
2023-01-20T23:10:47.436Z,89.46
2023-01-20T23:13:50.566Z,89.45
2023-01-20T23:16:53.320Z,89.68
2023-01-20T23:19:56.565Z,89.23
2023-01-20T23:23:03.823Z,88.43
2023-01-20T23:26:08.694Z,89.00
2023-01-20T23:29:11.335Z,89.10
2023-01-20T23:32:14.977Z,89.12
2023-01-20T23:35:17.827Z,89.03
2023-01-20T23:38:25.605Z,88.56
2023-01-20T23:41:28.357Z,88.60
2023-01-20T23:44:30.997Z,88.81
2023-01-20T23:47:36.788Z,88.98
2023-01-20T23:50:41.056Z,89.27
2023-01-20T23:53:45.214Z,89.31
2023-01-20T23:56:47.889Z,89.08
2023-01-20T23:59:50.506Z,88.87
